createdAt,value
2023-02-22T00:04:21.328Z,11.65
2023-02-22T00:09:22.802Z,9.73
2023-02-22T00:14:27.525Z,9.57
2023-02-22T00:19:30.863Z,8.88
2023-02-22T00:24:32.562Z,8.60
2023-02-22T00:29:34.608Z,8.43
2023-02-22T00:34:35.971Z,9.20
2023-02-22T00:39:37.320Z,7.47
2023-02-22T00:44:38.678Z,7.90
2023-02-22T00:49:40.062Z,7.05
2023-02-22T00:54:41.395Z,6.57
2023-02-22T00:59:42.710Z,7.63
2023-02-22T01:04:44.339Z,7.40
2023-02-22T01:09:45.729Z,6.55
2023-02-22T01:14:47.604Z,8.18
2023-02-22T01:19:49.055Z,6.85
2023-02-22T01:24:51.286Z,7.68
2023-02-22T01:29:52.647Z,8.05
2023-02-22T01:34:54.336Z,7.35
2023-02-22T01:39:55.697Z,6.60
2023-02-22T01:45:15.890Z,8.57
2023-02-22T01:50:17.211Z,6.78
2023-02-22T01:55:19.082Z,6.60
2023-02-22T02:00:21.401Z,7.03
2023-02-22T02:05:24.749Z,8.20
2023-02-22T02:10:26.100Z,9.40
2023-02-22T02:15:32.492Z,10.43
2023-02-22T02:20:43.145Z,8.95
2023-02-22T02:26:03.914Z,9.25
2023-02-22T02:31:24.345Z,9.93
2023-02-22T02:36:30.404Z,11.05
2023-02-22T02:41:40.469Z,10.70
2023-02-22T02:46:48.133Z,11.15
2023-02-22T02:51:52.055Z,9.68
2023-02-22T02:56:53.558Z,9.57
2023-02-22T03:02:08.605Z,10.10
2023-02-22T03:07:29.321Z,10.07
2023-02-22T03:12:47.793Z,10.23
2023-02-22T03:17:49.167Z,9.18
2023-02-22T03:23:09.708Z,8.88
2023-02-22T03:28:12.967Z,7.97
2023-02-22T03:33:20.365Z,9.25
2023-02-22T03:38:22.784Z,8.63
2023-02-22T03:43:26.955Z,9.32
2023-02-22T03:48:48.463Z,9.75
2023-02-22T03:53:49.902Z,11.60
2023-02-22T03:58:51.786Z,11.65
2023-02-22T04:03:53.234Z,11.85
2023-02-22T04:08:54.716Z,12.98
2023-02-22T04:13:57.102Z,12.60
2023-02-22T04:18:58.421Z,13.82
2023-02-22T04:23:59.823Z,11.98
2023-02-22T04:29:01.210Z,13.15
2023-02-22T04:34:03.547Z,13.25
2023-02-22T04:39:05.289Z,13.27
2023-02-22T04:44:06.630Z,12.95
2023-02-22T04:49:08.078Z,13.98
2023-02-22T04:54:09.439Z,14.52
2023-02-22T04:59:11.028Z,13.50
2023-02-22T05:04:12.424Z,12.98
2023-02-22T05:09:13.960Z,12.18
2023-02-22T05:14:15.284Z,12.52
2023-02-22T05:19:16.974Z,11.82
2023-02-22T05:24:18.399Z,13.38
2023-02-22T05:29:20.488Z,11.23
2023-02-22T05:34:21.813Z,12.70
2023-02-22T05:39:23.153Z,10.70
2023-02-22T05:44:24.511Z,11.48
2023-02-22T05:49:25.822Z,10.82
2023-02-22T05:54:27.201Z,10.30
2023-02-22T05:59:29.411Z,11.07
2023-02-22T06:04:30.856Z,10.75
2023-02-22T06:09:32.338Z,11.40
2023-02-22T06:14:33.732Z,11.23
2023-02-22T06:19:35.046Z,9.65
2023-02-22T06:24:39.396Z,9.95
2023-02-22T06:29:44.243Z,10.30
2023-02-22T06:34:45.635Z,10.07
2023-02-22T06:39:47.020Z,9.93
2023-02-22T06:44:49.370Z,9.68
2023-02-22T06:49:55.357Z,11.10
2023-02-22T06:54:56.689Z,11.95
2023-02-22T06:59:58.031Z,10.90
2023-02-22T07:04:59.419Z,11.52
2023-02-22T07:10:02.214Z,10.45
2023-02-22T07:15:03.775Z,12.32
2023-02-22T07:20:26.134Z,10.90
2023-02-22T07:25:27.592Z,11.88
2023-02-22T07:30:32.455Z,11.18
2023-02-22T07:35:36.641Z,10.35
2023-02-22T07:40:38.337Z,9.48
2023-02-22T07:45:39.775Z,9.82
2023-02-22T07:50:41.397Z,11.18
2023-02-22T07:55:43.501Z,9.82
2023-02-22T08:00:44.902Z,10.10
2023-02-22T08:05:47.645Z,9.27
2023-02-22T08:10:49.766Z,10.23
2023-02-22T08:15:53.060Z,9.88
2023-02-22T08:20:54.521Z,8.52
2023-02-22T08:25:56.314Z,12.15
2023-02-22T08:30:57.746Z,9.35
2023-02-22T08:35:59.233Z,9.20
2023-02-22T08:41:00.681Z,9.70
2023-02-22T08:46:02.063Z,13.10
2023-02-22T08:51:03.555Z,11.18
2023-02-22T08:56:05.030Z,9.82
2023-02-22T09:01:06.409Z,8.98
2023-02-22T09:06:08.094Z,9.50
2023-02-22T09:11:09.518Z,8.10
2023-02-22T09:16:10.933Z,8.88
2023-02-22T09:21:12.282Z,9.02
2023-02-22T09:26:16.071Z,8.98
2023-02-22T09:31:17.901Z,10.40
2023-02-22T09:36:21.649Z,10.20
2023-02-22T09:41:34.599Z,11.07
2023-02-22T09:51:50.007Z,10.68
2023-02-22T09:56:53.324Z,10.57
2023-02-22T10:02:01.311Z,13.27
2023-02-22T10:07:26.206Z,11.10
2023-02-22T10:12:27.714Z,11.85
2023-02-22T10:17:34.857Z,13.00
2023-02-22T10:22:43.298Z,11.00
2023-02-22T10:28:03.694Z,11.88
2023-02-22T10:33:12.330Z,12.10
2023-02-22T10:38:20.072Z,10.40
2023-02-22T10:43:21.554Z,10.35
2023-02-22T10:48:25.335Z,9.75
2023-02-22T10:53:26.933Z,10.20
2023-02-22T10:58:28.352Z,8.02
2023-02-22T11:03:29.914Z,8.70
2023-02-22T11:08:32.991Z,9.30
2023-02-22T11:13:38.053Z,7.60
2023-02-22T11:18:39.471Z,7.47
2023-02-22T11:23:44.690Z,6.88
2023-02-22T11:28:49.649Z,9.13
2023-02-22T11:33:58.743Z,8.00
2023-02-22T11:39:00.926Z,8.05
2023-02-22T11:44:31.900Z,8.05
2023-02-22T11:49:38.472Z,8.45
2023-02-22T11:54:46.156Z,8.98
2023-02-22T12:00:12.165Z,8.80
2023-02-22T12:05:13.614Z,6.90
2023-02-22T12:10:21.123Z,8.90
2023-02-22T12:15:22.686Z,8.82
2023-02-22T12:20:27.319Z,9.18
2023-02-22T12:25:31.013Z,11.30
2023-02-22T12:30:36.055Z,10.90
2023-02-22T12:35:39.076Z,10.73
2023-02-22T12:40:57.057Z,10.70
2023-02-22T12:46:07.033Z,11.45
2023-02-22T12:51:11.434Z,11.50
2023-02-22T12:56:25.645Z,10.85
2023-02-22T13:01:30.042Z,9.32
2023-02-22T13:11:38.965Z,8.82
2023-02-22T13:16:56.694Z,8.35
2023-02-22T13:22:13.145Z,9.60
2023-02-22T13:27:21.419Z,7.80
2023-02-22T13:32:32.194Z,8.00
2023-02-22T13:37:39.847Z,18.77
2023-02-22T13:42:53.686Z,8.20
2023-02-22T13:48:14.213Z,7.40
2023-02-22T13:53:18.507Z,7.07
2023-02-22T13:58:20.900Z,7.47
2023-02-22T14:03:24.012Z,7.93
2023-02-22T14:08:25.482Z,7.95
2023-02-22T14:13:28.413Z,7.40
2023-02-22T14:18:29.704Z,7.20
2023-02-22T14:23:44.564Z,7.40
2023-02-22T14:28:55.176Z,7.70
2023-02-22T14:34:08.883Z,7.80
2023-02-22T14:39:12.984Z,9.13
2023-02-22T14:44:16.464Z,8.38
2023-02-22T14:49:20.970Z,8.57
2023-02-22T14:59:25.436Z,8.23
2023-02-22T15:04:29.218Z,8.65
2023-02-22T15:09:34.523Z,7.38
2023-02-22T15:14:38.857Z,8.10
2023-02-22T15:19:41.320Z,8.00
2023-02-22T15:24:42.698Z,8.45
2023-02-22T15:29:44.591Z,9.15
2023-02-22T15:34:45.958Z,8.00
2023-02-22T15:39:47.316Z,8.15
2023-02-22T15:44:49.837Z,7.80
2023-02-22T15:50:15.174Z,8.93
2023-02-22T15:55:17.232Z,6.82
2023-02-22T16:00:20.241Z,7.53
2023-02-22T16:05:31.570Z,7.22
2023-02-22T16:10:33.394Z,8.77
2023-02-22T16:15:35.212Z,8.43
2023-02-22T16:20:36.834Z,8.68
2023-02-22T16:25:39.589Z,8.95
2023-02-22T16:30:41.122Z,8.90
2023-02-22T16:35:51.758Z,9.88
2023-02-22T16:40:55.161Z,9.45
2023-02-22T16:45:56.613Z,8.50
2023-02-22T16:51:02.331Z,9.15
2023-02-22T16:56:05.329Z,8.43
2023-02-22T17:01:07.175Z,8.75
2023-02-22T17:06:10.477Z,8.13
2023-02-22T17:11:13.110Z,8.68
2023-02-22T17:16:14.856Z,8.30
2023-02-22T17:21:16.548Z,8.68
2023-02-22T17:26:18.145Z,7.75
2023-02-22T17:31:21.804Z,9.05
2023-02-22T17:36:23.525Z,9.33
2023-02-22T17:41:24.950Z,9.77
2023-02-22T17:46:26.409Z,8.75
2023-02-22T17:51:27.876Z,9.02
2023-02-22T17:56:29.279Z,8.45
2023-02-22T18:01:31.990Z,14.57
2023-02-22T18:06:33.332Z,7.45
2023-02-22T18:11:34.698Z,7.45
2023-02-22T18:16:38.872Z,8.90
2023-02-22T18:21:40.291Z,7.22
2023-02-22T18:26:41.734Z,6.85
2023-02-22T18:31:45.381Z,7.30
2023-02-22T18:36:46.818Z,7.17
2023-02-22T18:41:48.762Z,7.00
2023-02-22T18:46:50.172Z,6.90
2023-02-22T18:51:51.536Z,7.30
2023-02-22T18:56:53.006Z,6.55
2023-02-22T19:01:54.440Z,6.18
2023-02-22T19:06:57.529Z,6.88
2023-02-22T19:11:58.901Z,7.32
2023-02-22T19:17:02.379Z,6.75
2023-02-22T19:22:03.769Z,7.25
2023-02-22T19:27:06.327Z,6.50
2023-02-22T19:32:08.438Z,8.85
2023-02-22T19:37:12.630Z,7.03
2023-02-22T19:42:13.970Z,7.43
2023-02-22T19:47:15.332Z,7.88
2023-02-22T19:52:16.806Z,7.45
2023-02-22T19:57:18.442Z,8.80
2023-02-22T20:02:22.901Z,7.88
2023-02-22T20:07:24.290Z,8.18
2023-02-22T20:12:25.691Z,7.65
2023-02-22T20:17:27.493Z,8.65
2023-02-22T20:22:28.858Z,8.38
2023-02-22T20:27:30.262Z,8.15
2023-02-22T20:32:32.311Z,8.00
2023-02-22T20:37:34.337Z,9.90
2023-02-22T20:42:35.669Z,7.72
2023-02-22T20:47:37.114Z,7.63
2023-02-22T20:52:38.514Z,8.25
2023-02-22T20:57:39.847Z,8.10
2023-02-22T21:02:41.229Z,8.30
2023-02-22T21:07:42.615Z,8.45
2023-02-22T21:12:47.727Z,9.20
2023-02-22T21:17:49.153Z,8.50
2023-02-22T21:22:50.844Z,8.35
2023-02-22T21:27:52.447Z,8.50
2023-02-22T21:32:54.459Z,9.57
2023-02-22T21:37:55.812Z,9.95
2023-02-22T21:42:57.157Z,8.65
2023-02-22T21:47:58.658Z,8.40
2023-02-22T21:53:00.214Z,9.30
2023-02-22T21:58:01.581Z,9.77
2023-02-22T22:03:08.333Z,9.95
2023-02-22T22:08:13.220Z,10.05
2023-02-22T22:13:14.580Z,10.68
2023-02-22T22:18:16.235Z,10.73
2023-02-22T22:23:17.647Z,10.93
2023-02-22T22:28:18.990Z,10.90
2023-02-22T22:33:20.333Z,12.02
2023-02-22T22:38:21.795Z,11.35
2023-02-22T22:43:23.321Z,10.93
2023-02-22T22:48:25.924Z,10.77
2023-02-22T22:53:27.880Z,10.40
2023-02-22T22:58:33.718Z,11.73
2023-02-22T23:03:37.845Z,12.40
2023-02-22T23:08:42.995Z,12.82
2023-02-22T23:13:44.462Z,12.32
2023-02-22T23:18:45.805Z,13.30
2023-02-22T23:23:51.473Z,14.48
2023-02-22T23:28:54.279Z,14.93
2023-02-22T23:33:58.523Z,13.38
2023-02-22T23:38:59.876Z,13.70
2023-02-22T23:44:01.176Z,14.35
2023-02-22T23:49:03.181Z,15.95
2023-02-22T23:54:08.989Z,14.88
2023-02-22T23:59:11.165Z,14.82
